Aviation Digital Data Service (ADDS)

Output produced by TAFs form (1513 UTC 19 August 2017)
found at http://www.aviationweather.gov/adds/tafs/
 
KALB 191140Z 1912/2012 VRB03KT P6SM FEW030 FEW070 SCT250 
     FM191600 26008KT P6SM SCT050 
     FM200000 28005KT P6SM SCT080 BKN140 
     FM200700 26004KT 6SM BR FEW002 SCT025